createdAt,value
2018-10-04T00:00:20.276Z,6.50
2018-10-04T00:01:20.305Z,3.70
2018-10-04T00:02:20.335Z,2.90
2018-10-04T00:03:20.365Z,3.00
2018-10-04T00:04:20.396Z,3.00
2018-10-04T00:05:20.425Z,3.00
2018-10-04T00:06:20.455Z,5.10
2018-10-04T00:07:20.488Z,3.20
2018-10-04T00:08:20.515Z,2.80
2018-10-04T00:09:20.545Z,3.40
2018-10-04T00:10:20.577Z,3.60
2018-10-04T00:11:20.605Z,3.60
2018-10-04T00:12:20.635Z,3.80
2018-10-04T00:13:20.665Z,5.80
2018-10-04T00:14:20.695Z,6.20
2018-10-04T00:15:20.729Z,4.20
2018-10-04T00:16:20.754Z,3.60
2018-10-04T00:17:20.787Z,4.10
2018-10-04T00:18:20.815Z,4.20
2018-10-04T00:19:20.845Z,3.40
2018-10-04T00:20:20.874Z,3.80
2018-10-04T00:21:20.903Z,3.60
2018-10-04T00:22:20.933Z,5.70
2018-10-04T00:23:20.963Z,5.80
2018-10-04T00:24:20.995Z,7.90
2018-10-04T00:25:21.024Z,3.30
2018-10-04T00:26:21.054Z,3.90
2018-10-04T00:27:21.085Z,2.80
2018-10-04T00:28:21.115Z,4.20
2018-10-04T00:29:21.142Z,3.50
2018-10-04T00:30:21.172Z,3.10
2018-10-04T00:31:21.204Z,3.10
2018-10-04T00:32:21.233Z,3.10
2018-10-04T00:33:21.262Z,5.10
2018-10-04T00:34:21.291Z,3.90
2018-10-04T00:35:21.322Z,6.20
2018-10-04T00:36:21.352Z,4.40
2018-10-04T00:37:21.381Z,3.60
2018-10-04T00:38:22.864Z,7.40
2018-10-04T00:39:21.445Z,4.50
2018-10-04T00:40:21.471Z,4.70
2018-10-04T00:41:21.499Z,4.30
2018-10-04T00:42:21.529Z,4.00
2018-10-04T00:43:21.563Z,3.60
2018-10-04T00:44:21.589Z,3.70
2018-10-04T00:45:21.617Z,3.10
2018-10-04T00:46:21.648Z,3.00
2018-10-04T00:47:21.677Z,3.70
2018-10-04T00:48:21.707Z,9.50
2018-10-04T00:49:21.737Z,3.50
2018-10-04T00:50:21.768Z,4.90
2018-10-04T00:51:21.797Z,3.20
2018-10-04T00:52:21.826Z,6.40
2018-10-04T00:53:21.856Z,4.50
2018-10-04T00:54:21.890Z,4.20
2018-10-04T00:55:21.914Z,4.10
2018-10-04T00:56:21.944Z,2.90
2018-10-04T00:57:21.973Z,3.80
2018-10-04T00:58:22.003Z,3.20
2018-10-04T00:59:22.033Z,4.40
2018-10-04T01:00:22.062Z,3.30
2018-10-04T01:01:22.091Z,3.60
2018-10-04T01:02:22.121Z,6.50
2018-10-04T01:03:22.155Z,10.10
2018-10-04T01:04:22.181Z,5.30
2018-10-04T01:05:22.285Z,4.50
2018-10-04T01:06:22.240Z,4.20
2018-10-04T01:07:22.269Z,3.50
2018-10-04T01:08:22.301Z,3.60
2018-10-04T01:09:22.327Z,4.00
2018-10-04T01:10:22.357Z,3.70
2018-10-04T01:11:22.388Z,4.50
2018-10-04T01:12:22.416Z,7.40
2018-10-04T01:13:22.446Z,4.00
2018-10-04T01:14:22.475Z,4.70
2018-10-04T01:15:22.505Z,5.60
2018-10-04T01:16:22.534Z,4.70
2018-10-04T01:17:22.569Z,4.70
2018-10-04T01:18:22.593Z,9.20
2018-10-04T01:19:22.623Z,5.30
2018-10-04T01:20:22.651Z,4.80
2018-10-04T01:21:22.682Z,5.50
2018-10-04T01:22:22.712Z,3.90
2018-10-04T01:23:22.739Z,7.20
2018-10-04T01:24:22.770Z,4.70
2018-10-04T01:25:22.799Z,6.50
2018-10-04T01:26:22.828Z,5.40
2018-10-04T01:27:22.857Z,4.40
2018-10-04T01:28:22.886Z,7.40
2018-10-04T01:29:22.915Z,5.40
2018-10-04T01:30:22.946Z,6.40
2018-10-04T01:31:22.979Z,5.70
2018-10-04T01:32:23.005Z,5.10
2018-10-04T01:33:23.034Z,5.10
2018-10-04T01:34:23.062Z,4.80
2018-10-04T01:35:23.092Z,6.30
2018-10-04T01:36:23.121Z,8.20
2018-10-04T01:37:23.152Z,5.40
2018-10-04T01:38:23.179Z,4.50
2018-10-04T01:39:23.210Z,5.60
2018-10-04T01:40:23.240Z,5.10
2018-10-04T01:41:23.267Z,5.20
2018-10-04T01:42:23.298Z,5.10
2018-10-04T01:43:23.327Z,4.00
2018-10-04T01:44:23.356Z,5.30
2018-10-04T01:45:23.386Z,5.30
2018-10-04T01:46:23.415Z,5.20
2018-10-04T01:47:23.445Z,7.00
2018-10-04T01:48:23.475Z,5.10
2018-10-04T01:49:23.503Z,5.50
2018-10-04T01:50:23.536Z,5.30
2018-10-04T01:51:23.561Z,5.10
2018-10-04T01:52:23.591Z,5.60
2018-10-04T01:53:23.621Z,5.00
2018-10-04T01:54:23.649Z,5.00
2018-10-04T01:55:23.680Z,5.90
2018-10-04T01:56:23.708Z,4.60
2018-10-04T01:57:23.737Z,5.20
2018-10-04T01:58:23.768Z,6.10
2018-10-04T01:59:23.797Z,5.40
2018-10-04T02:00:23.828Z,4.80
2018-10-04T02:01:23.854Z,4.50
2018-10-04T02:02:23.885Z,4.50
2018-10-04T02:03:23.914Z,6.90
2018-10-04T02:04:23.946Z,6.90
2018-10-04T02:05:23.973Z,4.60
2018-10-04T02:06:24.000Z,4.70
2018-10-04T02:07:24.030Z,5.50
2018-10-04T02:08:24.059Z,4.80
2018-10-04T02:09:24.087Z,4.10
2018-10-04T02:10:24.119Z,4.60
2018-10-04T02:11:24.149Z,4.80
2018-10-04T02:12:24.177Z,5.50
2018-10-04T02:13:24.205Z,4.70
2018-10-04T02:14:24.235Z,9.10
2018-10-04T02:15:24.263Z,6.00
2018-10-04T02:16:24.293Z,6.40
2018-10-04T02:17:24.326Z,4.40
2018-10-04T02:18:24.351Z,5.20
2018-10-04T02:19:24.380Z,4.60
2018-10-04T02:20:24.411Z,5.60
2018-10-04T02:21:24.438Z,5.20
2018-10-04T02:22:24.471Z,5.90
2018-10-04T02:23:24.498Z,4.90
2018-10-04T02:24:24.527Z,5.10
2018-10-04T02:25:24.558Z,4.60
2018-10-04T02:26:24.586Z,4.70
2018-10-04T02:27:24.614Z,5.80
2018-10-04T02:28:24.643Z,5.30
2018-10-04T02:29:24.671Z,4.40
2018-10-04T02:30:24.705Z,5.40
2018-10-04T02:31:24.731Z,5.40
2018-10-04T02:32:24.761Z,6.50
2018-10-04T02:33:24.791Z,5.40
2018-10-04T02:34:24.818Z,5.20
2018-10-04T02:35:24.850Z,4.90
2018-10-04T02:36:24.877Z,5.10
2018-10-04T02:37:24.905Z,5.90
2018-10-04T02:38:24.933Z,5.50
2018-10-04T02:39:24.963Z,4.20
2018-10-04T02:40:24.992Z,4.40
2018-10-04T02:41:25.021Z,5.00
2018-10-04T02:42:25.117Z,4.50
2018-10-04T02:43:25.080Z,5.60
2018-10-04T02:44:25.109Z,4.60
2018-10-04T02:45:25.136Z,4.40
2018-10-04T02:46:25.167Z,5.20
2018-10-04T02:47:25.195Z,4.50
2018-10-04T02:48:25.225Z,4.30
2018-10-04T02:49:25.254Z,6.50
2018-10-04T02:50:25.283Z,4.50
2018-10-04T02:51:25.312Z,4.60
2018-10-04T02:52:25.341Z,5.90
2018-10-04T02:53:25.369Z,4.30
2018-10-04T02:54:25.409Z,4.60
2018-10-04T02:55:25.429Z,4.60
2018-10-04T02:56:25.457Z,5.20
2018-10-04T02:57:25.490Z,4.80
2018-10-04T02:58:25.516Z,4.50
2018-10-04T02:59:25.545Z,6.20
2018-10-04T03:00:25.574Z,4.40
2018-10-04T03:01:25.601Z,6.50
2018-10-04T03:02:25.643Z,9.10
2018-10-04T03:03:25.673Z,5.30
2018-10-04T03:04:25.689Z,4.10
2018-10-04T03:05:25.717Z,4.20
2018-10-04T03:06:25.746Z,4.40
2018-10-04T03:07:25.775Z,4.50
2018-10-04T03:08:25.804Z,4.10
2018-10-04T03:09:25.833Z,4.50
2018-10-04T03:10:25.862Z,5.00
2018-10-04T03:11:25.890Z,4.70
2018-10-04T03:12:25.919Z,5.20
2018-10-04T03:13:25.947Z,5.30
2018-10-04T03:14:25.977Z,5.70
2018-10-04T03:15:26.005Z,5.30
2018-10-04T03:16:26.035Z,5.10
2018-10-04T03:17:26.064Z,7.20
2018-10-04T03:18:26.092Z,5.50
2018-10-04T03:19:26.121Z,5.50
2018-10-04T03:20:26.155Z,8.80
2018-10-04T03:21:26.233Z,5.30
2018-10-04T03:22:26.207Z,5.50
2018-10-04T03:23:26.236Z,5.80
2018-10-04T03:24:26.265Z,6.00
2018-10-04T03:25:26.292Z,6.30
2018-10-04T03:26:26.323Z,5.90
2018-10-04T03:27:26.353Z,5.50
2018-10-04T03:28:26.383Z,5.40
2018-10-04T03:29:26.408Z,5.30
2018-10-04T03:30:26.437Z,9.20
2018-10-04T03:31:26.465Z,6.20
2018-10-04T03:32:26.495Z,16.60
2018-10-04T03:33:26.523Z,13.90
2018-10-04T03:34:26.554Z,13.10
2018-10-04T03:35:26.580Z,6.20
2018-10-04T03:36:26.609Z,8.50
2018-10-04T03:37:26.637Z,6.10
2018-10-04T03:38:26.666Z,6.00
2018-10-04T03:39:26.696Z,7.30
2018-10-04T03:40:26.727Z,5.90
2018-10-04T03:41:26.753Z,6.60
2018-10-04T03:42:26.780Z,5.10
2018-10-04T03:43:26.810Z,5.50
2018-10-04T03:44:26.917Z,8.00
2018-10-04T03:45:26.867Z,5.70
2018-10-04T03:46:26.897Z,5.90
2018-10-04T03:47:26.925Z,5.80
2018-10-04T03:48:26.954Z,6.90
2018-10-04T03:49:26.981Z,5.30
2018-10-04T03:50:27.010Z,5.80
2018-10-04T03:51:27.039Z,8.20
2018-10-04T03:52:27.068Z,5.30
2018-10-04T03:53:27.096Z,6.70
2018-10-04T03:54:27.125Z,6.70
2018-10-04T03:55:27.153Z,7.40
2018-10-04T03:56:27.182Z,5.70
2018-10-04T03:57:27.209Z,5.70
2018-10-04T03:58:27.239Z,7.40
2018-10-04T03:59:27.267Z,5.50
2018-10-04T04:00:27.299Z,5.60
2018-10-04T04:01:27.325Z,5.40
2018-10-04T04:02:27.354Z,5.90
2018-10-04T04:03:27.383Z,6.30
2018-10-04T04:04:27.413Z,7.80
2018-10-04T04:05:27.441Z,5.70
2018-10-04T04:06:27.468Z,5.80
2018-10-04T04:07:27.496Z,7.40
2018-10-04T04:08:27.526Z,5.70
2018-10-04T04:09:27.553Z,11.00
2018-10-04T04:10:27.583Z,6.00
2018-10-04T04:11:27.619Z,6.80
2018-10-04T04:12:27.641Z,7.30
2018-10-04T04:13:27.669Z,6.50
2018-10-04T04:14:27.697Z,6.50
2018-10-04T04:15:27.725Z,6.00
2018-10-04T04:16:27.754Z,8.40
2018-10-04T04:17:27.781Z,7.20
2018-10-04T04:18:27.810Z,7.50
2018-10-04T04:19:27.842Z,7.00
2018-10-04T04:20:27.869Z,6.20
2018-10-04T04:21:27.896Z,11.40
2018-10-04T04:22:28.004Z,10.90
2018-10-04T04:23:27.954Z,10.10
2018-10-04T04:24:27.985Z,6.60
2018-10-04T04:25:28.010Z,9.00
2018-10-04T04:26:28.039Z,6.70
2018-10-04T04:27:28.068Z,8.00
2018-10-04T04:28:28.096Z,9.20
2018-10-04T04:29:28.125Z,7.00
2018-10-04T04:30:28.182Z,7.90
2018-10-04T04:31:28.181Z,8.00
2018-10-04T04:32:28.211Z,7.80
2018-10-04T04:33:28.239Z,6.90
2018-10-04T04:34:28.268Z,7.50
2018-10-04T04:35:28.297Z,11.70
2018-10-04T04:36:28.327Z,7.90
2018-10-04T04:37:28.353Z,8.10
2018-10-04T04:38:28.381Z,8.60
2018-10-04T04:39:29.962Z,7.30
2018-10-04T04:40:28.438Z,8.30
2018-10-04T04:41:28.467Z,7.80
2018-10-04T04:42:28.494Z,6.60
2018-10-04T04:43:28.525Z,9.00
2018-10-04T04:44:28.576Z,8.70
2018-10-04T04:45:28.580Z,7.10
2018-10-04T04:46:28.700Z,8.00
2018-10-04T04:47:28.638Z,6.80
2018-10-04T04:48:28.665Z,7.70
2018-10-04T04:49:28.693Z,7.00
2018-10-04T04:50:28.721Z,6.70
2018-10-04T04:51:28.750Z,8.60
2018-10-04T04:52:28.779Z,10.00
2018-10-04T04:53:28.811Z,7.20
2018-10-04T04:54:28.836Z,6.60
2018-10-04T04:55:28.866Z,7.30
2018-10-04T04:56:28.897Z,8.30
2018-10-04T04:57:28.921Z,7.00
2018-10-04T04:58:28.950Z,7.40
2018-10-04T04:59:28.978Z,9.70
2018-10-04T05:00:29.007Z,7.60
2018-10-04T05:01:29.035Z,7.00
2018-10-04T05:02:29.063Z,7.10
2018-10-04T05:03:29.090Z,6.60
2018-10-04T05:04:29.120Z,6.10
2018-10-04T05:05:29.147Z,7.90
2018-10-04T05:06:29.224Z,8.50
2018-10-04T05:07:29.205Z,7.30
2018-10-04T05:08:29.234Z,7.10
2018-10-04T05:09:29.260Z,7.40
2018-10-04T05:10:29.290Z,7.60
2018-10-04T05:11:29.324Z,7.60
2018-10-04T05:12:29.347Z,11.10
2018-10-04T05:13:29.375Z,12.60
2018-10-04T05:14:29.403Z,8.20
2018-10-04T05:15:29.431Z,8.70
2018-10-04T05:16:29.460Z,8.20
2018-10-04T05:17:29.487Z,11.00
2018-10-04T05:18:29.518Z,8.60
2018-10-04T05:19:29.546Z,8.80
2018-10-04T05:20:29.573Z,8.80
2018-10-04T05:21:29.600Z,9.10
2018-10-04T05:22:29.722Z,9.90
2018-10-04T05:23:29.658Z,8.40
2018-10-04T05:24:29.693Z,7.70
2018-10-04T05:25:29.714Z,8.40
2018-10-04T05:26:29.742Z,7.90
2018-10-04T05:27:29.771Z,9.80
2018-10-04T05:28:29.799Z,8.00
2018-10-04T05:29:29.827Z,7.40
2018-10-04T05:30:29.860Z,7.30
2018-10-04T05:31:29.885Z,8.20
2018-10-04T05:32:29.914Z,7.30
2018-10-04T05:33:29.941Z,8.60
2018-10-04T05:34:29.969Z,9.00
2018-10-04T05:35:29.997Z,8.00
2018-10-04T05:36:30.026Z,9.10
2018-10-04T05:37:30.157Z,7.60
2018-10-04T05:38:30.082Z,6.90
2018-10-04T05:39:30.110Z,7.40
2018-10-04T05:40:30.140Z,6.50
2018-10-04T05:41:30.167Z,8.10
2018-10-04T05:42:30.195Z,7.20
2018-10-04T05:43:30.224Z,7.90
2018-10-04T05:44:30.252Z,6.80
2018-10-04T05:45:30.283Z,8.80
2018-10-04T05:46:30.308Z,7.30
2018-10-04T05:47:30.336Z,7.40
2018-10-04T05:48:30.368Z,7.10
2018-10-04T05:49:30.393Z,6.60
2018-10-04T05:50:30.421Z,7.60
2018-10-04T05:51:30.450Z,7.70
2018-10-04T05:52:30.479Z,9.30
2018-10-04T05:53:30.614Z,7.50
2018-10-04T05:54:30.535Z,8.50
2018-10-04T05:55:30.562Z,6.60
2018-10-04T05:56:30.592Z,6.50
2018-10-04T05:57:30.622Z,10.10
2018-10-04T05:58:30.650Z,6.40
2018-10-04T05:59:30.751Z,5.90
2018-10-04T06:00:30.704Z,5.60
2018-10-04T06:01:30.734Z,7.80
2018-10-04T06:02:30.761Z,8.30
2018-10-04T06:03:30.789Z,21.30
2018-10-04T06:04:30.819Z,9.50
2018-10-04T06:05:30.847Z,9.70
2018-10-04T06:06:30.875Z,6.70
2018-10-04T06:07:30.904Z,12.80
2018-10-04T06:08:30.931Z,12.60
2018-10-04T06:09:30.960Z,6.60
2018-10-04T06:10:30.989Z,6.80
2018-10-04T06:11:31.017Z,7.20
2018-10-04T06:12:31.046Z,7.90
2018-10-04T06:13:31.073Z,7.80
2018-10-04T06:14:31.102Z,7.40
2018-10-04T06:15:31.220Z,6.50
2018-10-04T06:16:31.158Z,6.80
2018-10-04T06:17:31.187Z,7.60
2018-10-04T06:18:31.216Z,7.40
2018-10-04T06:19:31.245Z,8.60
2018-10-04T06:20:31.274Z,8.60
2018-10-04T06:21:31.300Z,8.50
2018-10-04T06:22:31.334Z,9.20
2018-10-04T06:23:31.358Z,10.50
2018-10-04T06:24:31.388Z,11.50
2018-10-04T06:25:31.415Z,13.30
2018-10-04T06:26:31.444Z,10.30
2018-10-04T06:27:31.473Z,13.30
2018-10-04T06:28:31.533Z,12.70
2018-10-04T06:29:31.531Z,13.50
2018-10-04T06:30:31.565Z,12.20
2018-10-04T06:31:31.588Z,11.50
2018-10-04T06:32:31.620Z,18.90
2018-10-04T06:33:31.646Z,15.70
2018-10-04T06:34:31.673Z,13.60
2018-10-04T06:35:31.703Z,11.50
2018-10-04T06:36:31.732Z,14.40
2018-10-04T06:37:31.760Z,10.40
2018-10-04T06:38:31.790Z,17.40
2018-10-04T06:39:31.820Z,17.40
2018-10-04T06:40:31.849Z,13.00
2018-10-04T06:41:31.886Z,15.10
2018-10-04T06:42:31.905Z,17.00
2018-10-04T06:43:31.935Z,15.10
2018-10-04T06:44:31.964Z,17.90
2018-10-04T06:45:31.994Z,15.70
2018-10-04T06:46:32.022Z,12.30
2018-10-04T06:47:32.054Z,11.10
2018-10-04T06:48:32.081Z,12.60
2018-10-04T06:49:32.111Z,13.40
2018-10-04T06:50:32.138Z,17.50
2018-10-04T06:51:32.168Z,16.10
2018-10-04T06:52:32.198Z,10.20
2018-10-04T06:53:32.227Z,13.00
2018-10-04T06:54:32.257Z,12.80
2018-10-04T06:55:32.342Z,11.00
2018-10-04T06:56:32.316Z,12.90
2018-10-04T06:57:32.345Z,14.20
2018-10-04T06:58:32.374Z,13.00
2018-10-04T06:59:32.405Z,10.80
2018-10-04T07:00:32.441Z,11.00
2018-10-04T07:01:32.463Z,10.80
2018-10-04T07:02:32.494Z,12.30
2018-10-04T07:03:32.531Z,13.50
2018-10-04T07:04:32.553Z,11.50
2018-10-04T07:05:32.583Z,10.70
2018-10-04T07:06:32.613Z,12.00
2018-10-04T07:07:32.647Z,12.70
2018-10-04T07:08:32.674Z,14.20
2018-10-04T07:09:32.703Z,10.70
2018-10-04T07:10:32.732Z,11.60
2018-10-04T07:11:32.763Z,11.10
2018-10-04T07:12:32.794Z,10.80
2018-10-04T07:13:32.823Z,10.20
2018-10-04T07:14:32.853Z,11.50
2018-10-04T07:15:32.884Z,16.60
2018-10-04T07:16:32.916Z,10.40
2018-10-04T07:17:32.945Z,14.20
2018-10-04T07:18:32.976Z,13.80
2018-10-04T07:19:33.011Z,12.30
2018-10-04T07:20:33.105Z,10.60
2018-10-04T07:21:33.067Z,13.90
2018-10-04T07:22:33.099Z,10.30
2018-10-04T07:23:33.129Z,12.20
2018-10-04T07:24:33.161Z,9.10
2018-10-04T07:25:33.192Z,10.80
2018-10-04T07:26:33.224Z,10.40
2018-10-04T07:27:33.256Z,9.90
2018-10-04T07:28:33.286Z,12.70
2018-10-04T07:29:33.317Z,11.10
2018-10-04T07:30:33.349Z,8.00
2018-10-04T07:31:33.431Z,9.60
2018-10-04T07:32:33.410Z,11.00
2018-10-04T07:33:33.444Z,8.70
2018-10-04T07:34:33.474Z,8.90
2018-10-04T07:35:33.506Z,8.90
2018-10-04T07:36:33.538Z,9.30
2018-10-04T07:37:33.572Z,8.70
2018-10-04T07:38:33.602Z,11.80
2018-10-04T07:39:33.633Z,9.50
2018-10-04T07:40:33.666Z,8.50
2018-10-04T07:41:33.698Z,9.30
2018-10-04T07:42:33.802Z,8.20
2018-10-04T07:43:33.762Z,10.30
2018-10-04T07:44:33.798Z,11.00
2018-10-04T07:45:33.827Z,8.50
2018-10-04T07:46:33.864Z,8.60
2018-10-04T07:47:33.893Z,8.10
2018-10-04T07:48:33.925Z,8.70
2018-10-04T07:49:33.958Z,8.50
2018-10-04T07:50:33.994Z,9.00
2018-10-04T07:51:34.023Z,8.60
2018-10-04T07:52:34.057Z,7.60
2018-10-04T07:53:34.090Z,10.00
2018-10-04T07:54:34.124Z,8.90
2018-10-04T07:55:34.156Z,8.60
2018-10-04T07:56:34.201Z,7.30
2018-10-04T07:57:34.220Z,8.50
2018-10-04T07:58:34.254Z,7.60
2018-10-04T07:59:34.288Z,7.20
2018-10-04T08:00:34.322Z,11.00
2018-10-04T08:01:34.355Z,7.20
2018-10-04T08:02:34.389Z,8.00
2018-10-04T08:03:34.447Z,8.50
2018-10-04T08:04:34.476Z,7.40
2018-10-04T08:05:34.489Z,6.60
2018-10-04T08:06:34.851Z,6.00
2018-10-04T08:07:34.558Z,6.90
2018-10-04T08:08:34.595Z,8.60
2018-10-04T08:09:34.624Z,8.80
2018-10-04T08:10:34.658Z,6.60
2018-10-04T08:11:34.693Z,10.20
2018-10-04T08:12:34.727Z,9.10
2018-10-04T08:13:34.760Z,7.40
2018-10-04T08:14:34.797Z,7.30
2018-10-04T08:15:34.831Z,7.30
2018-10-04T08:16:34.866Z,10.20
2018-10-04T08:17:34.900Z,7.00
2018-10-04T08:18:34.936Z,9.50
2018-10-04T08:19:34.971Z,11.20
2018-10-04T08:20:35.007Z,7.50
2018-10-04T08:21:35.041Z,6.70
2018-10-04T08:22:35.077Z,10.30
2018-10-04T08:23:35.114Z,7.60
2018-10-04T08:24:35.149Z,6.60
2018-10-04T08:25:35.185Z,7.20
2018-10-04T08:26:35.227Z,6.20
2018-10-04T08:27:35.328Z,6.90
2018-10-04T08:28:35.295Z,7.30
2018-10-04T08:29:35.332Z,6.40
2018-10-04T08:30:35.368Z,7.00
2018-10-04T08:31:35.406Z,8.20
2018-10-04T08:32:35.443Z,6.80
2018-10-04T08:33:35.542Z,6.00
2018-10-04T08:34:35.517Z,8.20
2018-10-04T08:35:35.561Z,5.60
2018-10-04T08:36:35.595Z,6.80
2018-10-04T08:37:35.630Z,5.40
2018-10-04T08:38:35.669Z,5.20
2018-10-04T08:39:35.710Z,5.50
2018-10-04T08:40:35.746Z,5.80
2018-10-04T08:41:35.785Z,5.20
2018-10-04T08:42:35.943Z,5.50
2018-10-04T08:43:35.862Z,7.60
2018-10-04T08:44:35.901Z,5.20
2018-10-04T08:45:35.941Z,5.50
2018-10-04T08:46:35.982Z,5.20
2018-10-04T08:47:36.019Z,6.10
2018-10-04T08:48:36.059Z,5.10
2018-10-04T08:49:36.099Z,5.00
2018-10-04T08:50:36.142Z,4.70
2018-10-04T08:51:36.181Z,5.40
2018-10-04T08:52:36.221Z,4.90
2018-10-04T08:53:36.285Z,5.10
2018-10-04T08:54:36.299Z,4.90
2018-10-04T08:55:36.339Z,4.80
2018-10-04T08:56:36.381Z,4.50
2018-10-04T08:57:36.423Z,6.70
2018-10-04T08:58:36.462Z,5.10
2018-10-04T08:59:36.568Z,4.40
2018-10-04T09:00:36.542Z,4.20
2018-10-04T09:01:36.583Z,5.10
2018-10-04T09:02:36.625Z,4.60
2018-10-04T09:03:36.667Z,4.40
2018-10-04T09:04:36.709Z,5.00
2018-10-04T09:05:36.749Z,3.90
2018-10-04T09:06:36.800Z,4.20
2018-10-04T09:07:36.940Z,4.30
2018-10-04T09:08:36.875Z,4.10
2018-10-04T09:09:36.915Z,5.70
2018-10-04T09:10:36.959Z,6.50
2018-10-04T09:11:37.001Z,4.60
2018-10-04T09:12:37.043Z,5.70
2018-10-04T09:13:37.085Z,6.00
2018-10-04T09:14:37.127Z,3.90
2018-10-04T09:15:37.171Z,4.00
2018-10-04T09:16:37.214Z,3.80
2018-10-04T09:17:37.254Z,3.80
2018-10-04T09:18:37.299Z,4.00
2018-10-04T09:19:37.342Z,4.20
2018-10-04T09:20:37.385Z,4.90
2018-10-04T09:21:37.430Z,3.60
2018-10-04T09:22:37.473Z,5.80
2018-10-04T09:23:37.514Z,4.10
2018-10-04T09:24:37.560Z,3.80
2018-10-04T09:25:37.603Z,3.40
2018-10-04T09:26:37.646Z,3.60
2018-10-04T09:27:37.690Z,3.10
2018-10-04T09:28:37.735Z,2.90
2018-10-04T09:29:37.777Z,3.30
2018-10-04T09:30:37.823Z,4.10
2018-10-04T09:31:37.868Z,4.80
2018-10-04T09:32:37.917Z,4.40
2018-10-04T09:33:37.955Z,5.30
2018-10-04T09:34:38.000Z,5.60
2018-10-04T09:35:38.046Z,5.00
2018-10-04T09:36:38.091Z,5.50
2018-10-04T09:37:38.136Z,5.90
2018-10-04T09:39:45.806Z,6.50
2018-10-04T09:40:45.851Z,6.40
2018-10-04T09:41:45.897Z,6.20
2018-10-04T09:42:45.942Z,6.10
2018-10-04T09:43:45.987Z,6.10
2018-10-04T09:44:46.034Z,5.80
2018-10-04T09:45:46.079Z,6.40
2018-10-04T09:46:46.124Z,6.90
2018-10-04T09:47:46.168Z,6.80
2018-10-04T09:48:46.215Z,6.90
2018-10-04T09:49:46.259Z,7.10
2018-10-04T09:50:46.303Z,8.50
2018-10-04T09:51:46.350Z,7.80
2018-10-04T09:52:46.395Z,7.80
2018-10-04T09:53:46.472Z,8.10
2018-10-04T09:54:46.484Z,8.60
2018-10-04T09:55:46.528Z,8.10
2018-10-04T09:56:46.572Z,8.20
2018-10-04T09:57:46.617Z,8.80
2018-10-04T09:58:46.662Z,8.20
2018-10-04T09:59:46.827Z,9.30
2018-10-04T10:00:46.751Z,9.10
2018-10-04T10:01:46.796Z,8.30
2018-10-04T10:02:46.839Z,8.20
2018-10-04T10:03:46.886Z,8.50
2018-10-04T10:04:46.929Z,9.60
2018-10-04T10:05:46.986Z,9.30
2018-10-04T10:06:47.019Z,8.80
2018-10-04T10:07:47.063Z,8.50
2018-10-04T10:08:47.108Z,8.20
2018-10-04T10:09:47.157Z,8.40
2018-10-04T10:10:47.198Z,8.20
2018-10-04T10:11:47.264Z,8.30
2018-10-04T10:12:47.290Z,7.40
2018-10-04T10:13:47.333Z,7.70
2018-10-04T10:14:47.376Z,7.40
2018-10-04T10:15:47.422Z,8.20
2018-10-04T10:16:47.467Z,7.30
2018-10-04T10:17:47.513Z,7.20
2018-10-04T10:18:47.558Z,7.30
2018-10-04T10:19:47.606Z,7.20
2018-10-04T10:20:47.651Z,7.30
2018-10-04T10:21:47.697Z,6.80
2018-10-04T10:22:47.745Z,6.10
2018-10-04T10:23:47.788Z,6.70
2018-10-04T10:24:47.835Z,6.70
2018-10-04T10:25:47.881Z,7.00
2018-10-04T10:26:47.926Z,6.20
2018-10-04T10:27:47.974Z,6.00
2018-10-04T10:28:48.020Z,6.30
2018-10-04T10:29:48.068Z,6.70
2018-10-04T10:30:48.114Z,6.40
2018-10-04T10:31:48.159Z,6.80
2018-10-04T10:32:48.218Z,6.40
2018-10-04T10:33:48.255Z,6.30
2018-10-04T10:34:48.301Z,7.00
2018-10-04T10:35:48.349Z,6.30
2018-10-04T10:36:48.398Z,6.40
2018-10-04T10:37:48.442Z,6.40
2018-10-04T10:38:48.489Z,5.90
2018-10-04T10:39:48.544Z,5.90
2018-10-04T10:40:48.584Z,5.10
2018-10-04T10:41:48.632Z,5.80
2018-10-04T10:42:48.679Z,5.30
2018-10-04T10:43:48.728Z,4.80
2018-10-04T10:44:48.775Z,4.50
2018-10-04T10:45:48.825Z,4.70
2018-10-04T10:46:48.872Z,4.70
2018-10-04T10:47:48.919Z,5.00
2018-10-04T10:48:48.968Z,4.60
2018-10-04T10:49:49.043Z,7.20
2018-10-04T10:50:49.065Z,7.80
2018-10-04T10:54:49.258Z,5.60
2018-10-04T10:55:49.306Z,6.00
2018-10-04T10:56:49.356Z,5.90
2018-10-04T10:57:49.405Z,5.40
2018-10-04T10:58:49.488Z,6.60
2018-10-04T10:59:49.501Z,5.30
2018-10-04T11:00:49.551Z,5.50
2018-10-04T11:01:49.598Z,5.20
2018-10-04T11:02:49.647Z,4.70
2018-10-04T11:03:49.695Z,5.40
2018-10-04T11:04:49.748Z,5.30
2018-10-04T11:05:49.822Z,5.90
2018-10-04T11:06:49.839Z,8.60
2018-10-04T11:07:49.889Z,5.60
2018-10-04T11:08:49.940Z,4.40
2018-10-04T11:09:49.992Z,9.00
2018-10-04T11:10:50.036Z,4.70
2018-10-04T11:11:50.087Z,4.90
2018-10-04T11:12:50.134Z,8.00
2018-10-04T11:13:50.186Z,4.40
2018-10-04T11:14:50.239Z,4.70
2018-10-04T11:15:50.283Z,4.10
2018-10-04T11:16:50.361Z,4.70
2018-10-04T11:17:50.519Z,4.10
2018-10-04T11:18:50.431Z,4.30
2018-10-04T11:19:50.481Z,4.60
2018-10-04T11:20:50.530Z,4.10
2018-10-04T11:21:50.581Z,4.80
2018-10-04T11:22:50.631Z,3.50
2018-10-04T11:23:50.681Z,6.10
2018-10-04T11:24:50.729Z,7.00
2018-10-04T11:25:50.828Z,3.60
2018-10-04T11:26:50.825Z,7.50
2018-10-04T11:27:50.875Z,8.20
2018-10-04T11:28:50.927Z,8.30
2018-10-04T11:29:50.975Z,4.10
2018-10-04T11:30:51.022Z,4.50
2018-10-04T11:31:51.075Z,5.70
2018-10-04T11:32:51.156Z,4.60
2018-10-04T11:33:51.170Z,3.70
2018-10-04T11:34:51.219Z,5.00
2018-10-04T11:35:51.267Z,5.80
2018-10-04T11:36:51.317Z,5.40
2018-10-04T11:37:51.367Z,3.70
2018-10-04T11:38:51.413Z,4.20
2018-10-04T11:39:51.461Z,7.60
2018-10-04T11:40:51.511Z,6.60
2018-10-04T11:41:51.566Z,4.70
2018-10-04T11:42:51.608Z,5.70
2018-10-04T11:43:51.658Z,4.40
2018-10-04T11:44:51.707Z,4.00
2018-10-04T11:45:51.757Z,3.10
2018-10-04T11:46:51.804Z,3.10
2018-10-04T11:47:51.853Z,6.60
2018-10-04T11:48:51.909Z,2.90
2018-10-04T11:49:51.952Z,4.30
2018-10-04T11:50:52.001Z,3.90
2018-10-04T11:51:52.058Z,3.90
2018-10-04T11:52:52.100Z,3.30
2018-10-04T11:53:52.151Z,3.20
2018-10-04T11:54:52.198Z,3.70
2018-10-04T11:55:52.252Z,4.80
2018-10-04T11:56:52.336Z,3.20
2018-10-04T11:57:52.350Z,4.80
2018-10-04T11:58:52.399Z,2.90
2018-10-04T11:59:52.450Z,3.40
2018-10-04T12:00:52.498Z,3.10
2018-10-04T12:01:52.568Z,3.10
2018-10-04T12:02:52.597Z,4.00
2018-10-04T12:03:52.648Z,2.90
2018-10-04T12:04:52.700Z,4.40
2018-10-04T12:06:53.044Z,3.80
2018-10-04T12:07:52.846Z,4.60
2018-10-04T12:08:52.896Z,3.70
2018-10-04T12:09:53.378Z,4.60
2018-10-04T12:10:52.996Z,5.40
2018-10-04T12:11:53.068Z,3.40
2018-10-04T12:13:53.175Z,5.30
2018-10-04T12:14:53.195Z,5.10
2018-10-04T12:15:53.246Z,5.70
2018-10-04T12:16:53.302Z,4.30
2018-10-04T12:17:53.346Z,4.80
2018-10-04T12:19:53.467Z,5.70
2018-10-04T12:20:53.721Z,4.80
2018-10-04T12:21:53.567Z,10.10
2018-10-04T12:22:53.620Z,6.00
2018-10-04T12:23:53.644Z,6.10
2018-10-04T12:24:53.781Z,3.80
2018-10-04T12:25:53.743Z,7.40
2018-10-04T12:26:53.795Z,2.90
2018-10-04T12:27:53.843Z,4.00
2018-10-04T12:28:53.915Z,3.40
2018-10-04T12:29:53.940Z,4.70
2018-10-04T12:30:53.998Z,3.60
2018-10-04T12:31:54.040Z,4.00
2018-10-04T12:32:54.088Z,3.90
2018-10-04T12:33:54.162Z,3.00
2018-10-04T12:34:54.187Z,3.10
2018-10-04T12:35:54.261Z,2.80
2018-10-04T12:36:54.305Z,3.20
2018-10-04T12:37:54.761Z,4.20
2018-10-04T12:38:54.385Z,3.60
2018-10-04T12:39:54.456Z,4.90
2018-10-04T12:40:54.503Z,4.10
2018-10-04T12:41:54.551Z,3.60
2018-10-04T12:43:54.669Z,4.60
2018-10-04T12:45:54.727Z,4.00
2018-10-04T12:46:54.799Z,5.60
2018-10-04T12:47:54.852Z,4.00
2018-10-04T12:48:55.203Z,4.10
2018-10-04T12:49:54.949Z,5.70
2018-10-04T12:50:54.998Z,4.90
2018-10-04T12:51:55.046Z,6.40
2018-10-04T12:53:55.144Z,6.20
2018-10-04T12:54:55.172Z,8.40
2018-10-04T12:55:55.220Z,6.20
2018-10-04T12:56:55.268Z,8.00
2018-10-04T12:57:55.318Z,6.20
2018-10-04T12:58:55.366Z,5.40
2018-10-04T12:59:55.744Z,4.90
2018-10-04T13:00:55.743Z,6.40
2018-10-04T13:01:55.538Z,6.50
2018-10-04T13:02:55.993Z,6.00
2018-10-04T13:03:55.635Z,3.40
2018-10-04T13:04:56.090Z,5.40
2018-10-04T13:05:55.940Z,5.30
2018-10-04T13:06:56.056Z,8.20
2018-10-04T13:07:55.809Z,5.80
2018-10-04T13:08:55.858Z,5.20
2018-10-04T13:09:55.929Z,4.50
2018-10-04T13:10:55.977Z,7.70
2018-10-04T13:11:56.007Z,5.90
2018-10-04T13:12:56.082Z,3.70
2018-10-04T13:13:56.127Z,4.40
2018-10-04T13:14:56.177Z,3.80
2018-10-04T13:15:56.203Z,6.90
2018-10-04T13:16:56.260Z,6.20
2018-10-04T13:17:56.302Z,5.60
2018-10-04T13:18:56.349Z,4.80
2018-10-04T13:19:56.398Z,3.10
2018-10-04T13:20:56.573Z,3.00
2018-10-04T13:21:56.497Z,3.80
2018-10-04T13:22:56.545Z,5.10
2018-10-04T13:23:56.598Z,8.50
2018-10-04T13:24:56.645Z,5.80
2018-10-04T13:25:56.694Z,6.90